Time;durP1;ratioP1;P1;durP2;ratioP2;P2;SDS_P1;SDS_P2;PMS_P1;PMS_P2;Temp;Humidity;BMP_temperature;BMP_pressure;BME280_temperature;BME280_humidity;BME280_pressure;Samples;Min_cycle;Max_cycle;Signal;HPM_P1;HPM_P2
2023/07/26 00:02:09;;;;;;;0.30;0.30;;;21.90;68.60;;;;;;5021989;28;20113;-79
2023/07/26 00:04:34;;;;;;;0.40;0.40;;;21.90;68.50;;;;;;5003065;28;20041;-79
2023/07/26 00:07:00;;;;;;;0.30;0.30;;;21.90;68.50;;;;;;5018107;28;20041;-79
2023/07/26 00:09:26;;;;;;;0.32;0.32;;;21.90;68.60;;;;;;5022291;28;20053;-79
2023/07/26 00:11:51;;;;;;;0.50;0.50;;;21.90;68.50;;;;;;5022097;28;20538;-79
2023/07/26 00:14:17;;;;;;;0.30;0.30;;;21.90;68.50;;;;;;5025167;28;20061;-79
2023/07/26 00:16:42;;;;;;;0.35;0.35;;;21.90;68.40;;;;;;5050916;28;20407;-79
2023/07/26 00:19:08;;;;;;;0.50;0.50;;;21.90;68.40;;;;;;5022084;28;20063;-79
2023/07/26 00:21:33;;;;;;;0.30;0.30;;;21.90;68.40;;;;;;5022201;28;20037;-79
2023/07/26 00:23:59;;;;;;;0.50;0.47;;;21.90;68.40;;;;;;5019442;28;20571;-79
2023/07/26 00:26:25;;;;;;;0.40;0.40;;;21.90;68.50;;;;;;5022311;28;20042;-79
2023/07/26 00:28:51;;;;;;;0.30;0.30;;;21.90;68.40;;;;;;5035575;28;20042;-79
2023/07/26 00:31:17;;;;;;;0.40;0.40;;;21.90;68.40;;;;;;5025093;28;20052;-79
2023/07/26 00:33:43;;;;;;;0.30;0.30;;;21.90;68.40;;;;;;5022615;28;20050;-79
2023/07/26 00:36:08;;;;;;;1.17;0.43;;;21.90;68.40;;;;;;5024203;28;20498;-80
2023/07/26 00:38:34;;;;;;;0.40;0.40;;;21.90;68.40;;;;;;4988976;28;20091;-79
2023/07/26 00:41:00;;;;;;;0.40;0.40;;;21.90;68.40;;;;;;5014068;28;20458;-79
2023/07/26 00:43:25;;;;;;;0.40;0.40;;;21.90;68.40;;;;;;5024788;28;20060;-80
2023/07/26 00:45:51;;;;;;;0.50;0.50;;;21.90;68.40;;;;;;5023930;28;20574;-79
2023/07/26 00:48:17;;;;;;;0.55;0.35;;;21.90;68.40;;;;;;5024757;28;20120;-79
2023/07/26 00:50:42;;;;;;;0.50;0.50;;;21.90;68.40;;;;;;5026408;28;20041;-79
2023/07/26 00:53:08;;;;;;;0.40;0.40;;;21.90;68.40;;;;;;5029449;28;20060;-79
2023/07/26 00:55:33;;;;;;;0.30;0.30;;;21.90;68.40;;;;;;5028384;28;20085;-79
2023/07/26 00:57:59;;;;;;;0.52;0.30;;;21.90;68.30;;;;;;5006278;28;20092;-79
2023/07/26 01:00:25;;;;;;;0.50;0.30;;;21.90;68.30;;;;;;4992246;28;20083;-79
2023/07/26 01:02:50;;;;;;;0.30;0.30;;;21.90;68.20;;;;;;5020116;28;20034;-79
2023/07/26 01:05:16;;;;;;;0.30;0.30;;;21.90;68.30;;;;;;5026926;28;20045;-79
2023/07/26 01:08:18;;;;;;;0.30;0.30;;;21.90;68.20;;;;;;5009911;28;20061;-79
2023/07/26 01:10:51;;;;;;;0.68;0.50;;;21.90;68.20;;;;;;5018650;28;20503;-79
2023/07/26 01:13:23;;;;;;;0.40;0.40;;;21.90;68.20;;;;;;5024741;28;20060;-79
2023/07/26 01:15:49;;;;;;;0.22;0.22;;;21.90;68.20;;;;;;5010497;28;20083;-79
2023/07/26 01:18:16;;;;;;;0.60;0.60;;;21.90;68.20;;;;;;5003950;28;20553;-79
2023/07/26 01:20:41;;;;;;;0.30;0.30;;;21.80;68.10;;;;;;5007213;28;20034;-79
2023/07/26 01:23:07;;;;;;;0.40;0.40;;;21.90;68.20;;;;;;5026551;28;20071;-79
2023/07/26 01:25:33;;;;;;;0.30;0.30;;;21.90;68.20;;;;;;5023504;28;20044;-79
2023/07/26 01:27:59;;;;;;;0.40;0.40;;;21.80;68.20;;;;;;5010688;28;20041;-79
2023/07/26 01:30:29;;;;;;;0.30;0.30;;;21.80;68.10;;;;;;5021776;28;20087;-79
2023/07/26 01:32:55;;;;;;;0.40;0.40;;;21.80;68.10;;;;;;5021880;28;20029;-79
2023/07/26 01:35:20;;;;;;;0.52;0.38;;;21.80;68.10;;;;;;5024961;28;20049;-80
2023/07/26 01:37:46;;;;;;;0.38;0.38;;;21.80;68.10;;;;;;5039820;28;20400;-79
2023/07/26 01:40:12;;;;;;;0.40;0.40;;;21.90;68.10;;;;;;5024064;28;20058;-79
2023/07/26 01:42:38;;;;;;;0.40;0.40;;;21.80;68.10;;;;;;5005922;28;20111;-79
2023/07/26 01:45:04;;;;;;;0.52;0.50;;;21.80;68.00;;;;;;5004788;28;20038;-79
2023/07/26 01:47:29;;;;;;;0.25;0.25;;;21.80;67.90;;;;;;5021992;28;20511;-79
2023/07/26 01:49:56;;;;;;;0.30;0.30;;;21.80;68.00;;;;;;5021355;28;20423;-79
2023/07/26 01:52:23;;;;;;;0.50;0.50;;;21.80;68.00;;;;;;5007122;28;20419;-79
2023/07/26 01:54:49;;;;;;;0.40;0.40;;;21.80;67.90;;;;;;5024248;28;20584;-80
2023/07/26 01:57:14;;;;;;;0.30;0.30;;;21.80;67.90;;;;;;5023498;28;20044;-80
2023/07/26 01:59:40;;;;;;;0.43;0.43;;;21.80;68.00;;;;;;5024992;28;20519;-80
2023/07/26 02:02:05;;;;;;;0.40;0.40;;;21.80;67.90;;;;;;5025835;28;20041;-79
2023/07/26 02:04:31;;;;;;;0.60;0.55;;;21.80;68.00;;;;;;5023752;28;20042;-79
2023/07/26 02:06:56;;;;;;;0.35;0.35;;;21.80;67.90;;;;;;5025210;28;20124;-79
2023/07/26 02:09:22;;;;;;;0.57;0.57;;;21.80;67.90;;;;;;5024559;28;21929;-79
2023/07/26 02:11:48;;;;;;;0.30;0.30;;;21.80;68.00;;;;;;5023626;28;20139;-79
2023/07/26 02:14:15;;;;;;;0.35;0.35;;;21.80;68.00;;;;;;5022924;28;20041;-79
2023/07/26 02:16:40;;;;;;;0.30;0.30;;;21.80;67.90;;;;;;5027780;28;20573;-79
2023/07/26 02:19:06;;;;;;;0.32;0.32;;;21.80;67.80;;;;;;5022456;28;20034;-79
2023/07/26 02:21:31;;;;;;;0.38;0.35;;;21.80;67.80;;;;;;5020082;28;20125;-79
2023/07/26 02:23:57;;;;;;;0.40;0.40;;;21.80;67.80;;;;;;5024008;28;20479;-79
2023/07/26 02:26:22;;;;;;;0.40;0.40;;;21.80;67.80;;;;;;5009666;28;20120;-79
2023/07/26 02:28:48;;;;;;;0.40;0.35;;;21.80;67.80;;;;;;5054680;28;20041;-79
2023/07/26 02:31:13;;;;;;;0.20;0.20;;;21.80;67.80;;;;;;5005815;28;20100;-79
2023/07/26 02:33:39;;;;;;;0.85;0.85;;;21.80;67.80;;;;;;5022734;28;20033;-79
2023/07/26 02:36:05;;;;;;;0.30;0.30;;;21.80;67.80;;;;;;5021192;28;20038;-79
2023/07/26 02:38:30;;;;;;;0.38;0.38;;;21.80;67.80;;;;;;5008783;28;20449;-79
2023/07/26 02:40:56;;;;;;;0.25;0.25;;;21.80;67.80;;;;;;5025549;28;20037;-79
2023/07/26 02:43:21;;;;;;;0.20;0.20;;;21.80;67.80;;;;;;5024273;28;20605;-79
2023/07/26 02:45:47;;;;;;;1.67;0.30;;;21.80;67.70;;;;;;5023210;28;20556;-79
2023/07/26 02:48:12;;;;;;;0.30;0.30;;;21.80;67.70;;;;;;5025660;28;20038;-79
2023/07/26 02:50:38;;;;;;;0.40;0.40;;;21.80;67.70;;;;;;5023294;28;20045;-79
2023/07/26 02:53:03;;;;;;;0.30;0.30;;;21.80;67.70;;;;;;5022637;28;20044;-79
2023/07/26 02:55:29;;;;;;;0.40;0.40;;;21.80;67.70;;;;;;5022725;28;20429;-79
2023/07/26 02:57:54;;;;;;;0.40;0.40;;;21.80;67.80;;;;;;5005936;28;20459;-79
2023/07/26 03:00:20;;;;;;;0.40;0.40;;;21.80;67.80;;;;;;5011284;28;20044;-79
2023/07/26 03:02:46;;;;;;;0.40;0.40;;;21.80;67.80;;;;;;5006437;28;20129;-79
2023/07/26 03:05:11;;;;;;;0.30;0.30;;;21.70;67.70;;;;;;5021773;28;20339;-79
2023/07/26 03:07:37;;;;;;;0.30;0.30;;;21.80;67.70;;;;;;5007819;28;20049;-79
2023/07/26 03:10:02;;;;;;;0.30;0.30;;;21.80;67.70;;;;;;5007257;28;20049;-79
2023/07/26 03:12:28;;;;;;;0.40;0.40;;;21.80;67.70;;;;;;5026216;28;20514;-79
2023/07/26 03:14:54;;;;;;;0.40;0.40;;;21.80;67.70;;;;;;5006846;28;20045;-79
2023/07/26 03:17:19;;;;;;;0.43;0.40;;;21.70;67.60;;;;;;5006639;28;20095;-79
2023/07/26 03:19:45;;;;;;;0.30;0.30;;;21.80;67.60;;;;;;5052172;28;20507;-79
2023/07/26 03:22:10;;;;;;;0.20;0.20;;;21.70;67.60;;;;;;5006975;28;20396;-79
2023/07/26 03:24:36;;;;;;;0.40;0.40;;;21.80;68.40;;;;;;5022009;28;20091;-79
2023/07/26 03:27:01;;;;;;;0.20;0.20;;;21.80;67.60;;;;;;5020872;28;20117;-79
2023/07/26 03:29:27;;;;;;;0.40;0.40;;;21.70;67.60;;;;;;5009684;28;20080;-79
2023/07/26 03:31:52;;;;;;;0.45;0.45;;;21.80;68.40;;;;;;5040189;28;20584;-79
2023/07/26 03:34:18;;;;;;;0.52;0.52;;;21.70;67.60;;;;;;5019250;28;20046;-79
2023/07/26 03:36:43;;;;;;;0.30;0.30;;;21.70;67.60;;;;;;5004711;28;20045;-78
2023/07/26 03:39:09;;;;;;;0.47;0.47;;;21.70;67.60;;;;;;5005707;28;20025;-78
2023/07/26 03:41:35;;;;;;;0.40;0.40;;;21.70;67.60;;;;;;5020911;28;20049;-78
2023/07/26 03:44:00;;;;;;;0.30;0.30;;;21.70;67.60;;;;;;5025791;28;20071;-79
2023/07/26 03:46:26;;;;;;;0.30;0.30;;;21.70;67.60;;;;;;5004384;28;20061;-79
2023/07/26 03:48:51;;;;;;;0.30;0.30;;;21.70;67.60;;;;;;5024004;28;20045;-79
2023/07/26 03:51:17;;;;;;;0.40;0.40;;;21.70;67.60;;;;;;5025238;28;20036;-79
2023/07/26 03:53:42;;;;;;;0.30;0.30;;;21.70;67.60;;;;;;5019881;28;20034;-79
2023/07/26 03:56:08;;;;;;;0.30;0.30;;;21.70;67.70;;;;;;5022599;28;20037;-79
2023/07/26 03:58:33;;;;;;;0.35;0.35;;;21.70;67.60;;;;;;5021674;28;20604;-79
2023/07/26 04:00:59;;;;;;;0.40;0.40;;;21.70;67.50;;;;;;5024997;28;20078;-79
2023/07/26 04:03:24;;;;;;;0.30;0.30;;;21.70;67.60;;;;;;5022670;28;20037;-79
2023/07/26 04:05:50;;;;;;;0.30;0.30;;;21.70;67.60;;;;;;5024853;28;20057;-79
2023/07/26 04:08:15;;;;;;;0.40;0.40;;;21.70;67.60;;;;;;5021556;28;20065;-79
2023/07/26 04:10:41;;;;;;;0.38;0.38;;;21.70;67.60;;;;;;5022994;28;20503;-79
2023/07/26 04:13:07;;;;;;;0.50;0.50;;;21.70;67.60;;;;;;5025493;28;20391;-79
2023/07/26 04:15:32;;;;;;;0.40;0.40;;;21.70;67.60;;;;;;5021151;28;20038;-79
2023/07/26 04:17:58;;;;;;;0.40;0.40;;;21.70;67.60;;;;;;5022184;28;20177;-79
2023/07/26 04:20:23;;;;;;;0.30;0.30;;;21.60;67.60;;;;;;5023570;28;20060;-79
2023/07/26 04:22:49;;;;;;;0.38;0.38;;;21.70;67.60;;;;;;5025925;28;20438;-79
2023/07/26 04:25:15;;;;;;;0.30;0.30;;;21.70;67.60;;;;;;5005209;28;20037;-79
2023/07/26 04:27:40;;;;;;;0.50;0.50;;;21.70;67.60;;;;;;5005181;28;20041;-79
2023/07/26 04:30:06;;;;;;;0.50;0.50;;;21.70;67.60;;;;;;5020194;28;20038;-79
2023/07/26 04:32:32;;;;;;;0.30;0.30;;;21.70;67.60;;;;;;5022659;28;20069;-79
2023/07/26 04:34:58;;;;;;;0.30;0.30;;;21.70;67.60;;;;;;5022370;28;20073;-79
2023/07/26 04:37:23;;;;;;;0.40;0.40;;;21.70;67.60;;;;;;4987511;28;20045;-79
2023/07/26 04:39:49;;;;;;;0.30;0.30;;;21.70;67.60;;;;;;5021906;28;20037;-79
2023/07/26 04:42:15;;;;;;;0.47;0.47;;;21.70;67.60;;;;;;4998961;28;20053;-79
2023/07/26 04:44:40;;;;;;;0.40;0.40;;;21.60;67.50;;;;;;5022253;28;20045;-79
2023/07/26 04:47:06;;;;;;;0.30;0.30;;;21.70;67.60;;;;;;5024415;28;20471;-79
2023/07/26 04:49:31;;;;;;;0.40;0.40;;;21.70;67.60;;;;;;5024659;28;20045;-79
2023/07/26 04:51:57;;;;;;;0.30;0.30;;;21.70;67.60;;;;;;5021162;28;20057;-79
2023/07/26 04:54:22;;;;;;;0.30;0.30;;;21.70;67.50;;;;;;5019707;28;20034;-78
2023/07/26 04:56:48;;;;;;;0.30;0.30;;;21.70;67.50;;;;;;5005150;28;20049;-79
2023/07/26 04:59:14;;;;;;;0.40;0.40;;;21.60;67.50;;;;;;5022537;28;20084;-79
2023/07/26 05:01:40;;;;;;;0.30;0.30;;;21.70;67.50;;;;;;5022519;28;20062;-79
2023/07/26 05:04:05;;;;;;;0.30;0.30;;;21.70;67.50;;;;;;5024714;28;20592;-79
2023/07/26 05:06:31;;;;;;;0.20;0.20;;;21.70;67.50;;;;;;5021030;28;20042;-79
2023/07/26 05:08:57;;;;;;;0.30;0.30;;;21.60;67.30;;;;;;5024782;28;20075;-79
2023/07/26 05:11:22;;;;;;;0.32;0.32;;;21.60;67.30;;;;;;5019200;28;20046;-79
2023/07/26 05:13:49;;;;;;;0.20;0.20;;;21.60;67.40;;;;;;5052105;28;20098;-79
2023/07/26 05:16:14;;;;;;;0.40;0.40;;;21.60;67.30;;;;;;5018563;28;20503;-80
2023/07/26 05:18:40;;;;;;;0.40;0.40;;;21.60;67.30;;;;;;5021711;28;20037;-79
2023/07/26 05:21:06;;;;;;;0.30;0.30;;;21.70;67.20;;;;;;5018272;28;20605;-78
2023/07/26 05:23:31;;;;;;;0.40;0.40;;;21.70;67.40;;;;;;5026746;28;20072;-78
2023/07/26 05:25:57;;;;;;;0.40;0.40;;;21.70;67.40;;;;;;5026154;28;20048;-79
2023/07/26 05:28:22;;;;;;;0.40;0.40;;;21.70;67.30;;;;;;5007422;28;20037;-79
2023/07/26 05:30:48;;;;;;;0.32;0.32;;;21.70;67.40;;;;;;5006144;28;20098;-77
2023/07/26 05:33:15;;;;;;;0.30;0.30;;;21.70;67.50;;;;;;5022422;28;20061;-78
2023/07/26 05:35:40;;;;;;;0.60;0.60;;;21.70;67.60;;;;;;5025184;28;20042;-75
2023/07/26 05:38:06;;;;;;;1.35;0.68;;;21.70;68.10;;;;;;5012502;28;20045;-74
2023/07/26 05:40:31;;;;;;;0.88;0.88;;;21.50;67.00;;;;;;5009989;28;20046;-73
2023/07/26 05:42:57;;;;;;;0.77;0.77;;;21.40;67.50;;;;;;5022258;28;20411;-73
2023/07/26 05:45:23;;;;;;;0.80;0.80;;;21.30;67.80;;;;;;5023032;28;20037;-74
2023/07/26 05:47:48;;;;;;;2.58;1.17;;;21.20;67.80;;;;;;5021783;28;20073;-75
2023/07/26 05:50:14;;;;;;;2.47;0.90;;;21.20;68.20;;;;;;5009393;28;20025;-75
2023/07/26 05:52:40;;;;;;;1.05;0.90;;;21.10;68.40;;;;;;5051704;28;20042;-74
2023/07/26 05:55:06;;;;;;;0.70;0.70;;;21.10;68.30;;;;;;5022458;28;20041;-74
2023/07/26 05:57:32;;;;;;;0.90;0.90;;;21.20;68.40;;;;;;5023732;28;20056;-75
2023/07/26 05:59:57;;;;;;;1.10;1.00;;;21.00;68.50;;;;;;5023339;28;20037;-74
2023/07/26 06:02:23;;;;;;;1.00;1.00;;;21.00;68.50;;;;;;5028427;28;20045;-74
2023/07/26 06:04:48;;;;;;;2.50;1.48;;;21.00;68.70;;;;;;5026251;28;20555;-74
2023/07/26 06:07:14;;;;;;;1.73;1.15;;;20.90;68.80;;;;;;5001464;28;20031;-75
2023/07/26 06:09:40;;;;;;;1.20;0.93;;;20.90;69.10;;;;;;5007006;28;20040;-74
2023/07/26 06:12:06;;;;;;;3.35;1.20;;;20.90;69.20;;;;;;5007718;28;20022;-74
2023/07/26 06:14:31;;;;;;;1.48;1.38;;;21.00;69.00;;;;;;5009536;28;20119;-74
2023/07/26 06:16:58;;;;;;;1.38;1.27;;;21.00;68.90;;;;;;5026436;28;20093;-74
2023/07/26 06:19:23;;;;;;;1.75;0.90;;;21.00;69.10;;;;;;5021216;28;20049;-74
2023/07/26 06:21:49;;;;;;;1.60;1.10;;;20.80;69.20;;;;;;5023999;28;20045;-73
2023/07/26 06:24:15;;;;;;;1.08;1.00;;;20.90;69.30;;;;;;5024396;28;20057;-74
2023/07/26 06:26:41;;;;;;;1.55;1.45;;;21.00;69.10;;;;;;5029491;28;20418;-73
2023/07/26 06:29:06;;;;;;;1.83;1.20;;;20.90;69.20;;;;;;5022919;28;20044;-74
2023/07/26 06:31:32;;;;;;;2.55;1.45;;;20.90;69.20;;;;;;5024175;28;20048;-74
2023/07/26 06:33:57;;;;;;;2.53;1.83;;;20.80;69.40;;;;;;5019627;28;20107;-74
2023/07/26 06:36:23;;;;;;;2.05;1.30;;;20.80;69.60;;;;;;5019509;28;20045;-74
2023/07/26 06:38:48;;;;;;;3.63;1.25;;;20.80;70.50;;;;;;5023499;28;20047;-74
2023/07/26 06:41:15;;;;;;;1.58;1.35;;;20.70;70.20;;;;;;5023313;28;20095;-75
2023/07/26 06:43:41;;;;;;;1.30;1.20;;;20.60;70.40;;;;;;5053264;28;20175;-74
2023/07/26 06:46:06;;;;;;;1.35;0.95;;;20.60;70.30;;;;;;5023087;28;20132;-74
2023/07/26 06:48:32;;;;;;;2.15;1.20;;;20.60;70.30;;;;;;5021947;28;20033;-74
2023/07/26 06:50:57;;;;;;;1.30;1.20;;;20.70;70.10;;;;;;5020443;28;20494;-74
2023/07/26 06:53:23;;;;;;;2.55;1.00;;;20.70;70.40;;;;;;5017291;28;20136;-74
2023/07/26 06:55:49;;;;;;;1.52;1.33;;;20.60;70.40;;;;;;5006682;28;20068;-73
2023/07/26 06:58:14;;;;;;;4.75;1.20;;;20.60;71.20;;;;;;5001724;28;20030;-74
2023/07/26 07:00:40;;;;;;;3.22;1.17;;;20.60;70.40;;;;;;5020862;28;20128;-74
2023/07/26 07:03:05;;;;;;;1.35;1.13;;;20.70;70.70;;;;;;5023500;28;20041;-73
2023/07/26 07:05:34;;;;;;;1.25;1.10;;;20.60;70.80;;;;;;5023615;28;20049;-75
2023/07/26 07:07:59;;;;;;;2.33;1.30;;;20.70;70.50;;;;;;5022631;28;20080;-74
2023/07/26 07:10:25;;;;;;;2.47;1.20;;;20.70;70.60;;;;;;5025491;28;20061;-74
2023/07/26 07:12:50;;;;;;;1.80;1.20;;;20.80;70.60;;;;;;5022084;28;20029;-73
2023/07/26 07:15:16;;;;;;;1.55;1.40;;;20.70;70.80;;;;;;5022226;28;20045;-75
2023/07/26 07:17:41;;;;;;;2.97;1.17;;;20.80;70.80;;;;;;5005960;28;20148;-73
2023/07/26 07:20:08;;;;;;;1.35;0.98;;;20.90;71.10;;;;;;5024286;28;20037;-74
2023/07/26 07:22:34;;;;;;;1.20;1.00;;;20.90;70.80;;;;;;5020460;28;20045;-74
2023/07/26 07:25:00;;;;;;;2.50;1.13;;;20.90;70.70;;;;;;5019834;28;20072;-74
2023/07/26 07:27:25;;;;;;;1.63;1.20;;;20.80;70.60;;;;;;5023185;28;20468;-75
2023/07/26 07:29:51;;;;;;;3.70;1.10;;;20.80;71.00;;;;;;5006490;28;20412;-74
2023/07/26 07:32:17;;;;;;;1.48;1.25;;;20.90;72.00;;;;;;5022369;28;20119;-75
2023/07/26 07:34:42;;;;;;;1.83;1.20;;;20.90;70.90;;;;;;5021767;28;20553;-75
2023/07/26 07:37:08;;;;;;;1.42;1.17;;;21.00;70.90;;;;;;5003514;28;20033;-74
2023/07/26 07:39:34;;;;;;;3.05;1.60;;;21.00;70.90;;;;;;4986877;28;20040;-76
2023/07/26 07:41:59;;;;;;;1.55;1.10;;;21.00;70.70;;;;;;5002898;28;20510;-75
2023/07/26 07:44:26;;;;;;;1.42;1.33;;;20.90;70.90;;;;;;5018648;28;20551;-74
2023/07/26 07:46:52;;;;;;;2.72;1.50;;;20.80;71.20;;;;;;5035770;28;20045;-76
2023/07/26 07:49:17;;;;;;;1.80;1.35;;;20.80;70.90;;;;;;5003582;28;20072;-75
2023/07/26 07:51:43;;;;;;;1.63;1.20;;;20.80;70.30;;;;;;5019716;28;20033;-75
2023/07/26 07:54:08;;;;;;;1.70;1.25;;;20.80;70.40;;;;;;5019148;28;20057;-78
2023/07/26 07:56:34;;;;;;;2.75;1.20;;;20.90;69.70;;;;;;5015075;28;20088;-76
2023/07/26 07:58:59;;;;;;;3.03;1.30;;;20.80;69.30;;;;;;5022758;28;20736;-77
2023/07/26 08:01:25;;;;;;;2.38;1.20;;;;;;;;;;5021572;28;20037;-75
2023/07/26 08:03:51;;;;;;;2.33;1.30;;;20.80;68.80;;;;;;5021684;28;20044;-77
2023/07/26 08:06:17;;;;;;;1.92;1.00;;;20.80;69.80;;;;;;5022828;28;20037;-75
2023/07/26 08:08:42;;;;;;;2.15;1.25;;;20.70;70.40;;;;;;5004065;28;20069;-75
2023/07/26 08:11:08;;;;;;;1.50;1.05;;;20.80;70.50;;;;;;5004545;28;20426;-76
2023/07/26 08:13:34;;;;;;;2.00;1.10;;;20.80;70.40;;;;;;5005508;28;20068;-75
2023/07/26 08:15:59;;;;;;;1.70;1.30;;;20.90;70.20;;;;;;5000992;28;20050;-76
2023/07/26 08:18:25;;;;;;;2.35;0.98;;;20.90;70.00;;;;;;5022236;28;20532;-76
2023/07/26 08:20:51;;;;;;;3.70;1.33;;;21.00;69.80;;;;;;5004248;28;20061;-76
2023/07/26 08:23:17;;;;;;;2.22;1.20;;;21.00;69.60;;;;;;5023856;28;20474;-75
2023/07/26 08:25:42;;;;;;;0.98;0.80;;;21.10;70.30;;;;;;5023524;28;20499;-76
2023/07/26 08:28:08;;;;;;;1.38;1.27;;;21.10;69.40;;;;;;5004245;28;20088;-76
2023/07/26 08:30:33;;;;;;;2.08;1.02;;;21.10;69.20;;;;;;5018360;28;20415;-76
2023/07/26 08:32:59;;;;;;;1.65;1.05;;;21.10;69.20;;;;;;5022971;28;20128;-76
2023/07/26 08:35:24;;;;;;;1.85;1.70;;;21.20;69.20;;;;;;5022117;28;20106;-76
2023/07/26 08:37:50;;;;;;;2.05;1.23;;;21.20;69.90;;;;;;5037750;28;20589;-76
2023/07/26 08:40:16;;;;;;;2.22;1.33;;;21.20;69.20;;;;;;5004922;28;20046;-76
2023/07/26 08:42:42;;;;;;;2.63;1.30;;;21.20;69.00;;;;;;5022652;28;20056;-76
2023/07/26 08:45:08;;;;;;;1.33;1.23;;;21.20;69.00;;;;;;5003932;28;20045;-77
2023/07/26 08:47:34;;;;;;;1.65;1.45;;;21.20;68.90;;;;;;4985873;28;20046;-76
2023/07/26 08:50:00;;;;;;;1.42;1.25;;;21.30;69.00;;;;;;5006767;28;20586;-76
2023/07/26 08:52:26;;;;;;;5.43;1.48;;;21.30;69.00;;;;;;5021673;28;20037;-76
2023/07/26 08:54:51;;;;;;;3.45;1.52;;;21.30;69.00;;;;;;5020472;28;20044;-76
2023/07/26 08:57:18;;;;;;;4.03;1.08;;;21.30;69.00;;;;;;5039913;28;20057;-77
2023/07/26 08:59:43;;;;;;;1.50;1.40;;;21.30;69.00;;;;;;5009012;28;20779;-77
2023/07/26 09:02:09;;;;;;;1.52;1.42;;;21.40;69.20;;;;;;5008778;28;20034;-76
2023/07/26 09:04:35;;;;;;;1.45;1.33;;;21.40;69.20;;;;;;5027117;28;20029;-77
2023/07/26 09:07:04;;;;;;;1.33;1.20;;;21.40;69.20;;;;;;5009444;28;20407;-77
2023/07/26 09:09:33;;;;;;;1.20;1.10;;;21.40;69.20;;;;;;5023844;28;20037;-77
2023/07/26 09:11:59;;;;;;;1.15;0.90;;;21.40;69.20;;;;;;5024913;28;20506;-77
2023/07/26 09:14:28;;;;;;;1.10;1.00;;;21.40;69.20;;;;;;5024808;28;20057;-75
2023/07/26 09:16:58;;;;;;;1.20;1.10;;;21.40;69.20;;;;;;5026098;28;20046;-75
2023/07/26 09:19:37;;;;;;;1.60;1.23;;;21.50;69.30;;;;;;5022960;28;20099;-75
2023/07/26 09:22:04;;;;;;;2.33;0.93;;;21.50;69.20;;;;;;5008388;28;20104;-74
2023/07/26 09:24:33;;;;;;;1.40;0.90;;;21.50;69.30;;;;;;5024867;28;20046;-74
2023/07/26 09:27:10;;;;;;;1.35;1.20;;;21.50;70.00;;;;;;5024571;28;20539;-74
2023/07/26 09:29:39;;;;;;;2.05;1.10;;;21.70;69.20;;;;;;5023501;28;20053;-75
2023/07/26 09:32:05;;;;;;;1.50;1.10;;;21.60;69.10;;;;;;5018181;28;20049;-74
2023/07/26 09:34:31;;;;;;;1.67;0.95;;;21.50;69.30;;;;;;5016841;28;20042;-74
2023/07/26 09:36:57;;;;;;;1.10;0.80;;;21.60;69.40;;;;;;5006905;28;20033;-75
2023/07/26 09:39:25;;;;;;;1.95;1.13;;;21.50;69.90;;;;;;5024588;28;20048;-74
2023/07/26 09:42:01;;;;;;;1.17;0.88;;;21.60;69.80;;;;;;5023656;28;20051;-74
2023/07/26 09:44:27;;;;;;;1.25;0.80;;;21.50;70.10;;;;;;5004670;28;20525;-75
2023/07/26 09:46:55;;;;;;;1.33;1.10;;;21.40;70.30;;;;;;5041447;28;20046;-75
2023/07/26 09:49:24;;;;;;;1.55;1.17;;;21.50;70.70;;;;;;5007839;28;20530;-74
2023/07/26 09:51:59;;;;;;;2.53;1.20;;;21.50;69.90;;;;;;5023166;28;20661;-77
2023/07/26 09:54:29;;;;;;;1.05;0.88;;;21.50;69.80;;;;;;5022853;28;20096;-77
2023/07/26 09:56:55;;;;;;;2.53;1.10;;;21.50;70.10;;;;;;5008415;28;20048;-77
2023/07/26 09:59:21;;;;;;;2.05;0.90;;;21.50;70.80;;;;;;5009173;28;20041;-76
2023/07/26 10:01:46;;;;;;;1.52;0.70;;;21.50;70.90;;;;;;5026905;28;20044;-77
2023/07/26 10:04:15;;;;;;;1.25;0.80;;;21.60;69.80;;;;;;4989855;28;20622;-77
2023/07/26 10:06:41;;;;;;;1.10;0.82;;;21.70;69.70;;;;;;5007250;28;20049;-77
2023/07/26 10:09:12;;;;;;;2.03;0.90;;;21.60;69.80;;;;;;5008561;28;20041;-77
2023/07/26 10:11:39;;;;;;;1.73;1.02;;;21.60;70.20;;;;;;5008378;28;20080;-76
2023/07/26 10:14:04;;;;;;;1.70;0.77;;;21.70;70.10;;;;;;5025126;28;20060;-77
2023/07/26 10:16:30;;;;;;;1.67;0.80;;;21.70;70.30;;;;;;5009029;28;20098;-77
2023/07/26 10:18:57;;;;;;;1.75;0.80;;;21.70;71.30;;;;;;5006794;28;20443;-78
2023/07/26 10:21:23;;;;;;;3.45;1.30;;;21.70;70.70;;;;;;5021907;28;20030;-78
2023/07/26 10:23:49;;;;;;;1.40;0.75;;;21.70;71.50;;;;;;5007921;28;20102;-78
2023/07/26 10:26:15;;;;;;;2.03;0.90;;;21.70;71.50;;;;;;5025411;28;20040;-78
2023/07/26 10:28:40;;;;;;;1.30;0.90;;;21.80;71.00;;;;;;5008500;28;20049;-77
2023/07/26 10:31:06;;;;;;;1.27;0.70;;;21.80;70.90;;;;;;5006338;28;20049;-77
2023/07/26 10:33:32;;;;;;;4.03;0.90;;;21.80;70.80;;;;;;4989319;28;20598;-75
2023/07/26 10:35:58;;;;;;;1.63;1.02;;;21.80;72.00;;;;;;5006412;28;20046;-76
2023/07/26 10:38:24;;;;;;;1.70;1.05;;;21.80;71.60;;;;;;4989768;28;20392;-76
2023/07/26 10:40:49;;;;;;;1.88;1.05;;;21.80;71.70;;;;;;5023912;28;20124;-75
2023/07/26 10:43:24;;;;;;;1.48;1.00;;;21.80;72.20;;;;;;5023029;28;20132;-75
2023/07/26 10:45:53;;;;;;;2.50;1.00;;;21.80;72.30;;;;;;5025537;28;20124;-75
2023/07/26 10:48:35;;;;;;;1.30;0.95;;;21.90;72.10;;;;;;5024748;28;20069;-75
2023/07/26 10:51:20;;;;;;;1.92;0.85;;;21.90;72.30;;;;;;5004429;28;20045;-74
2023/07/26 10:53:46;;;;;;;1.65;1.00;;;21.90;71.60;;;;;;5022160;28;20069;-76
2023/07/26 10:56:18;;;;;;;2.47;0.60;;;21.90;71.90;;;;;;5022387;28;20448;-76
2023/07/26 10:59:16;;;;;;;2.83;1.48;;;21.90;73.00;;;;;;5024824;28;20046;-78
2023/07/26 11:01:44;;;;;;;1.20;1.10;;;22.00;72.60;;;;;;5016046;28;20029;-78
2023/07/26 11:04:28;;;;;;;1.00;0.90;;;22.00;72.40;;;;;;5019690;28;20128;-78
2023/07/26 11:06:58;;;;;;;1.17;1.00;;;22.00;72.10;;;;;;4983606;28;20105;-78
2023/07/26 11:09:26;;;;;;;1.13;1.02;;;22.00;72.10;;;;;;5005728;28;20073;-74
2023/07/26 11:11:59;;;;;;;2.47;0.95;;;22.00;71.80;;;;;;5018220;28;20083;-75
2023/07/26 11:14:26;;;;;;;1.10;0.60;;;22.10;71.70;;;;;;5023335;28;20058;-75
2023/07/26 11:16:53;;;;;;;1.15;0.70;;;22.00;71.70;;;;;;4326232;28;10000846;-76
2023/07/26 11:19:18;;;;;;;1.52;0.75;;;22.10;71.80;;;;;;5017603;28;20057;-78
2023/07/26 11:21:44;;;;;;;2.53;0.60;;;22.00;71.80;;;;;;5018831;28;20099;-79
2023/07/26 11:24:09;;;;;;;1.50;1.00;;;22.10;72.00;;;;;;4985203;28;20168;-78
2023/07/26 11:26:43;;;;;;;0.98;0.80;;;22.10;72.20;;;;;;5017762;28;20596;-78
2023/07/26 11:29:09;;;;;;;;;;;22.10;72.30;;;;;;5019483;28;20055;-79
2023/07/26 11:31:35;;;;;;;0.90;0.82;;;22.10;72.10;;;;;;5016416;28;19917;-79
2023/07/26 11:34:14;;;;;;;0.57;0.57;;;22.10;72.20;;;;;;5015585;28;20042;-82
2023/07/26 11:36:39;;;;;;;1.10;0.93;;;22.10;72.50;;;;;;5009939;28;20089;-75
2023/07/26 11:39:06;;;;;;;1.05;0.80;;;22.10;72.80;;;;;;5018182;28;20072;-76
2023/07/26 11:41:31;;;;;;;0.73;0.50;;;22.20;72.90;;;;;;4996996;28;20053;-75
2023/07/26 11:43:58;;;;;;;1.52;0.70;;;22.10;73.00;;;;;;5021343;28;20036;-76
2023/07/26 11:46:28;;;;;;;1.33;0.80;;;22.20;73.20;;;;;;5017370;28;20091;-76
2023/07/26 11:48:53;;;;;;;1.80;0.80;;;22.10;73.00;;;;;;5017055;28;20104;-76
2023/07/26 11:51:20;;;;;;;0.90;0.50;;;22.10;72.90;;;;;;5021679;28;20080;-77
2023/07/26 11:53:47;;;;;;;1.10;0.75;;;22.10;72.90;;;;;;5002084;28;20122;-75
2023/07/26 11:56:12;;;;;;;0.50;0.50;;;22.10;72.70;;;;;;5022118;28;20053;-76
2023/07/26 11:58:38;;;;;;;0.52;0.40;;;22.10;73.10;;;;;;5024034;28;20037;-76
2023/07/26 12:01:04;;;;;;;0.70;0.70;;;22.10;73.00;;;;;;5018917;28;20422;-77
2023/07/26 12:03:30;;;;;;;0.50;0.40;;;22.10;73.00;;;;;;5005089;28;20399;-75
2023/07/26 12:05:55;;;;;;;2.00;0.45;;;22.20;73.00;;;;;;5022018;28;20045;-77
2023/07/26 12:08:21;;;;;;;1.45;0.50;;;22.20;72.90;;;;;;5022637;28;20132;-76
2023/07/26 12:10:47;;;;;;;0.40;0.40;;;22.20;72.80;;;;;;5047885;28;20049;-77
2023/07/26 12:13:20;;;;;;;0.68;0.43;;;22.10;72.50;;;;;;5021914;28;20046;-76
2023/07/26 12:15:55;;;;;;;2.13;0.40;;;22.20;72.60;;;;;;5030616;28;20033;-77
2023/07/26 12:18:21;;;;;;;0.50;0.50;;;22.20;72.60;;;;;;5020138;28;20054;-76
2023/07/26 12:21:08;;;;;;;3.08;0.43;;;22.20;72.70;;;;;;5018389;28;20038;-77
2023/07/26 12:23:52;;;;;;;0.60;0.57;;;22.10;72.50;;;;;;5018505;28;20084;-76
2023/07/26 12:26:19;;;;;;;0.63;0.40;;;22.10;72.50;;;;;;5019019;28;20120;-76
2023/07/26 12:28:45;;;;;;;1.13;0.65;;;22.20;72.60;;;;;;5025116;28;20564;-76
2023/07/26 12:31:20;;;;;;;0.73;0.73;;;22.10;72.60;;;;;;5020463;28;20041;-76
2023/07/26 12:34:01;;;;;;;0.50;0.50;;;22.20;72.30;;;;;;5020332;28;20056;-78
2023/07/26 12:36:29;;;;;;;0.52;0.52;;;22.20;72.20;;;;;;5041561;28;20171;-75
2023/07/26 12:38:55;;;;;;;0.80;0.50;;;22.20;72.90;;;;;;5024087;28;20069;-74
2023/07/26 12:41:22;;;;;;;0.80;0.45;;;22.20;72.10;;;;;;5009643;28;20132;-74
2023/07/26 12:43:51;;;;;;;1.02;0.50;;;22.20;72.30;;;;;;5034495;28;20983;-74
2023/07/26 12:46:17;;;;;;;0.73;0.50;;;22.20;72.30;;;;;;5025115;28;20506;-74